sensor_id;sensor_type;location;lat;lon;timestamp;P1;durP1;ratioP1;P2;durP2;ratioP2
75423;SDS011;64005;55.160;36.002;2023-06-04T00:01:02;1.23;;;0.52;;
75423;SDS011;64005;55.160;36.002;2023-06-04T00:03:30;2.80;;;0.60;;
75423;SDS011;64005;55.160;36.002;2023-06-04T00:05:57;3.97;;;0.77;;
75423;SDS011;64005;55.160;36.002;2023-06-04T00:08:26;2.10;;;0.70;;
75423;SDS011;64005;55.160;36.002;2023-06-04T00:10:54;2.13;;;0.68;;
75423;SDS011;64005;55.160;36.002;2023-06-04T00:13:21;1.88;;;0.80;;
75423;SDS011;64005;55.160;36.002;2023-06-04T00:15:49;1.77;;;0.70;;
75423;SDS011;64005;55.160;36.002;2023-06-04T00:18:16;3.33;;;0.90;;
75423;SDS011;64005;55.160;36.002;2023-06-04T00:20:44;5.05;;;0.77;;
75423;SDS011;64005;55.160;36.002;2023-06-04T00:23:11;3.72;;;0.65;;
75423;SDS011;64005;55.160;36.002;2023-06-04T00:25:40;2.33;;;0.57;;
75423;SDS011;64005;55.160;36.002;2023-06-04T00:28:08;2.83;;;1.00;;
75423;SDS011;64005;55.160;36.002;2023-06-04T00:30:35;2.15;;;0.70;;
75423;SDS011;64005;55.160;36.002;2023-06-04T00:33:03;3.83;;;0.95;;
75423;SDS011;64005;55.160;36.002;2023-06-04T00:35:31;3.17;;;0.88;;
75423;SDS011;64005;55.160;36.002;2023-06-04T00:37:59;1.88;;;0.60;;
75423;SDS011;64005;55.160;36.002;2023-06-04T00:40:27;2.97;;;0.75;;
75423;SDS011;64005;55.160;36.002;2023-06-04T00:42:56;5.38;;;0.82;;
75423;SDS011;64005;55.160;36.002;2023-06-04T00:45:24;2.72;;;0.85;;
75423;SDS011;64005;55.160;36.002;2023-06-04T00:47:52;2.50;;;0.75;;
75423;SDS011;64005;55.160;36.002;2023-06-04T00:50:21;4.28;;;0.98;;
75423;SDS011;64005;55.160;36.002;2023-06-04T00:52:49;4.38;;;1.35;;
75423;SDS011;64005;55.160;36.002;2023-06-04T00:55:17;2.30;;;0.85;;
75423;SDS011;64005;55.160;36.002;2023-06-04T00:57:45;3.45;;;0.90;;
75423;SDS011;64005;55.160;36.002;2023-06-04T01:00:14;5.38;;;1.38;;
75423;SDS011;64005;55.160;36.002;2023-06-04T01:02:42;6.45;;;0.70;;
75423;SDS011;64005;55.160;36.002;2023-06-04T01:05:17;12.02;;;1.02;;
75423;SDS011;64005;55.160;36.002;2023-06-04T01:07:54;4.07;;;0.73;;
75423;SDS011;64005;55.160;36.002;2023-06-04T01:10:24;2.42;;;0.88;;
75423;SDS011;64005;55.160;36.002;2023-06-04T01:12:51;2.88;;;0.80;;
75423;SDS011;64005;55.160;36.002;2023-06-04T01:15:20;3.13;;;0.75;;
75423;SDS011;64005;55.160;36.002;2023-06-04T01:17:48;2.58;;;0.63;;
75423;SDS011;64005;55.160;36.002;2023-06-04T01:20:24;3.13;;;0.90;;
75423;SDS011;64005;55.160;36.002;2023-06-04T01:25:54;1.67;;;0.65;;
75423;SDS011;64005;55.160;36.002;2023-06-04T01:28:23;1.63;;;0.60;;
75423;SDS011;64005;55.160;36.002;2023-06-04T01:30:53;3.15;;;1.00;;
75423;SDS011;64005;55.160;36.002;2023-06-04T01:33:22;3.05;;;0.90;;
75423;SDS011;64005;55.160;36.002;2023-06-04T01:35:49;6.68;;;0.80;;
75423;SDS011;64005;55.160;36.002;2023-06-04T01:38:17;1.65;;;0.52;;
75423;SDS011;64005;55.160;36.002;2023-06-04T01:40:45;1.75;;;0.52;;
75423;SDS011;64005;55.160;36.002;2023-06-04T01:43:13;3.20;;;0.85;;
75423;SDS011;64005;55.160;36.002;2023-06-04T01:45:40;1.85;;;0.63;;
75423;SDS011;64005;55.160;36.002;2023-06-04T01:48:09;2.22;;;0.73;;
75423;SDS011;64005;55.160;36.002;2023-06-04T01:50:37;2.10;;;0.80;;
75423;SDS011;64005;55.160;36.002;2023-06-04T01:53:04;2.85;;;0.70;;
75423;SDS011;64005;55.160;36.002;2023-06-04T01:55:33;2.17;;;0.77;;
75423;SDS011;64005;55.160;36.002;2023-06-04T01:58:04;2.03;;;0.73;;
75423;SDS011;64005;55.160;36.002;2023-06-04T02:00:39;2.38;;;0.70;;
75423;SDS011;64005;55.160;36.002;2023-06-04T02:03:08;2.28;;;0.73;;
75423;SDS011;64005;55.160;36.002;2023-06-04T02:05:38;2.42;;;0.70;;
75423;SDS011;64005;55.160;36.002;2023-06-04T02:08:05;3.38;;;0.75;;
75423;SDS011;64005;55.160;36.002;2023-06-04T02:10:34;2.22;;;0.60;;
75423;SDS011;64005;55.160;36.002;2023-06-04T02:13:02;2.70;;;0.82;;
75423;SDS011;64005;55.160;36.002;2023-06-04T02:15:33;2.75;;;0.65;;
75423;SDS011;64005;55.160;36.002;2023-06-04T02:18:12;1.88;;;0.65;;
75423;SDS011;64005;55.160;36.002;2023-06-04T02:21:03;2.33;;;0.70;;
75423;SDS011;64005;55.160;36.002;2023-06-04T02:23:31;2.88;;;1.02;;
75423;SDS011;64005;55.160;36.002;2023-06-04T02:25:59;1.15;;;0.40;;
75423;SDS011;64005;55.160;36.002;2023-06-04T02:28:27;1.95;;;0.80;;
75423;SDS011;64005;55.160;36.002;2023-06-04T02:30:54;2.03;;;0.60;;
75423;SDS011;64005;55.160;36.002;2023-06-04T02:33:23;3.13;;;0.90;;
75423;SDS011;64005;55.160;36.002;2023-06-04T02:35:51;2.75;;;0.68;;
75423;SDS011;64005;55.160;36.002;2023-06-04T02:38:18;0.68;;;0.30;;
75423;SDS011;64005;55.160;36.002;2023-06-04T02:40:46;2.45;;;0.80;;
75423;SDS011;64005;55.160;36.002;2023-06-04T02:43:13;2.78;;;0.75;;
75423;SDS011;64005;55.160;36.002;2023-06-04T02:45:41;3.10;;;0.65;;
75423;SDS011;64005;55.160;36.002;2023-06-04T02:48:08;1.88;;;0.77;;
75423;SDS011;64005;55.160;36.002;2023-06-04T02:50:37;0.77;;;0.38;;
75423;SDS011;64005;55.160;36.002;2023-06-04T02:53:08;2.08;;;1.17;;
75423;SDS011;64005;55.160;36.002;2023-06-04T02:55:35;2.47;;;0.80;;
75423;SDS011;64005;55.160;36.002;2023-06-04T03:00:59;1.83;;;0.65;;
75423;SDS011;64005;55.160;36.002;2023-06-04T03:06:03;2.50;;;0.82;;
75423;SDS011;64005;55.160;36.002;2023-06-04T03:08:31;1.58;;;0.52;;
75423;SDS011;64005;55.160;36.002;2023-06-04T03:10:59;2.25;;;0.70;;
75423;SDS011;64005;55.160;36.002;2023-06-04T03:13:26;0.95;;;0.57;;
75423;SDS011;64005;55.160;36.002;2023-06-04T03:15:54;1.75;;;0.45;;
75423;SDS011;64005;55.160;36.002;2023-06-04T03:34:12;0.80;;;0.43;;
75423;SDS011;64005;55.160;36.002;2023-06-04T04:03:08;2.50;;;0.80;;
75423;SDS011;64005;55.160;36.002;2023-06-04T04:05:36;1.92;;;0.77;;
75423;SDS011;64005;55.160;36.002;2023-06-04T04:08:03;2.10;;;0.75;;
75423;SDS011;64005;55.160;36.002;2023-06-04T04:10:31;3.90;;;1.08;;
75423;SDS011;64005;55.160;36.002;2023-06-04T04:12:59;1.63;;;0.73;;
75423;SDS011;64005;55.160;36.002;2023-06-04T04:15:26;4.18;;;0.82;;
75423;SDS011;64005;55.160;36.002;2023-06-04T04:17:56;3.17;;;1.00;;
75423;SDS011;64005;55.160;36.002;2023-06-04T04:20:24;2.63;;;0.80;;
75423;SDS011;64005;55.160;36.002;2023-06-04T04:22:52;2.78;;;0.95;;
75423;SDS011;64005;55.160;36.002;2023-06-04T04:25:20;3.28;;;0.90;;
75423;SDS011;64005;55.160;36.002;2023-06-04T04:27:48;3.42;;;0.90;;
75423;SDS011;64005;55.160;36.002;2023-06-04T04:30:16;2.35;;;0.95;;
75423;SDS011;64005;55.160;36.002;2023-06-04T04:32:44;1.83;;;0.82;;
75423;SDS011;64005;55.160;36.002;2023-06-04T04:38:13;2.08;;;0.70;;
75423;SDS011;64005;55.160;36.002;2023-06-04T04:40:42;2.40;;;0.80;;
75423;SDS011;64005;55.160;36.002;2023-06-04T04:45:48;4.22;;;0.88;;
75423;SDS011;64005;55.160;36.002;2023-06-04T04:54:25;1.55;;;0.60;;
75423;SDS011;64005;55.160;36.002;2023-06-04T04:57:06;2.30;;;0.85;;
75423;SDS011;64005;55.160;36.002;2023-06-04T04:59:35;4.40;;;0.90;;
75423;SDS011;64005;55.160;36.002;2023-06-04T05:02:02;1.90;;;0.70;;
75423;SDS011;64005;55.160;36.002;2023-06-04T05:04:30;2.28;;;0.75;;
75423;SDS011;64005;55.160;36.002;2023-06-04T05:09:55;2.38;;;0.60;;
75423;SDS011;64005;55.160;36.002;2023-06-04T05:15:12;3.70;;;0.90;;
75423;SDS011;64005;55.160;36.002;2023-06-04T05:20:18;2.38;;;0.90;;
75423;SDS011;64005;55.160;36.002;2023-06-04T05:25:25;2.35;;;0.82;;
75423;SDS011;64005;55.160;36.002;2023-06-04T05:27:55;1.38;;;0.60;;
75423;SDS011;64005;55.160;36.002;2023-06-04T05:32:58;1.23;;;0.60;;
75423;SDS011;64005;55.160;36.002;2023-06-04T05:35:26;1.75;;;0.40;;
75423;SDS011;64005;55.160;36.002;2023-06-04T05:37:54;2.15;;;0.90;;
75423;SDS011;64005;55.160;36.002;2023-06-04T05:43:02;1.92;;;0.88;;
75423;SDS011;64005;55.160;36.002;2023-06-04T05:45:30;1.70;;;0.82;;
75423;SDS011;64005;55.160;36.002;2023-06-04T05:47:57;3.17;;;0.95;;
75423;SDS011;64005;55.160;36.002;2023-06-04T05:50:25;2.28;;;0.90;;
75423;SDS011;64005;55.160;36.002;2023-06-04T05:52:52;2.33;;;0.80;;
75423;SDS011;64005;55.160;36.002;2023-06-04T05:55:20;3.10;;;0.85;;
75423;SDS011;64005;55.160;36.002;2023-06-04T06:00:24;1.73;;;0.85;;
75423;SDS011;64005;55.160;36.002;2023-06-04T06:02:52;1.00;;;0.50;;
75423;SDS011;64005;55.160;36.002;2023-06-04T06:05:20;2.50;;;0.95;;
75423;SDS011;64005;55.160;36.002;2023-06-04T06:07:48;2.03;;;0.80;;
75423;SDS011;64005;55.160;36.002;2023-06-04T06:16:08;2.05;;;0.77;;
75423;SDS011;64005;55.160;36.002;2023-06-04T06:18:36;2.47;;;0.93;;
75423;SDS011;64005;55.160;36.002;2023-06-04T06:21:18;2.53;;;0.80;;
75423;SDS011;64005;55.160;36.002;2023-06-04T06:23:45;2.25;;;0.80;;
75423;SDS011;64005;55.160;36.002;2023-06-04T06:26:13;1.98;;;0.70;;
75423;SDS011;64005;55.160;36.002;2023-06-04T06:28:41;1.98;;;0.70;;
75423;SDS011;64005;55.160;36.002;2023-06-04T06:31:11;1.90;;;0.73;;
75423;SDS011;64005;55.160;36.002;2023-06-04T06:33:53;1.95;;;0.80;;
75423;SDS011;64005;55.160;36.002;2023-06-04T06:36:21;1.35;;;0.63;;
75423;SDS011;64005;55.160;36.002;2023-06-04T06:38:48;2.15;;;0.80;;
75423;SDS011;64005;55.160;36.002;2023-06-04T06:49:41;2.30;;;0.82;;
75423;SDS011;64005;55.160;36.002;2023-06-04T06:52:09;3.10;;;0.90;;
75423;SDS011;64005;55.160;36.002;2023-06-04T06:57:14;2.38;;;0.75;;
75423;SDS011;64005;55.160;36.002;2023-06-04T06:59:42;1.38;;;0.60;;
75423;SDS011;64005;55.160;36.002;2023-06-04T07:02:10;1.35;;;0.63;;
75423;SDS011;64005;55.160;36.002;2023-06-04T07:04:39;2.28;;;0.80;;
75423;SDS011;64005;55.160;36.002;2023-06-04T07:07:06;3.47;;;0.70;;
75423;SDS011;64005;55.160;36.002;2023-06-04T07:09:34;2.42;;;1.00;;
75423;SDS011;64005;55.160;36.002;2023-06-04T07:14:52;1.58;;;0.70;;
75423;SDS011;64005;55.160;36.002;2023-06-04T07:17:19;2.70;;;0.90;;
75423;SDS011;64005;55.160;36.002;2023-06-04T07:19:49;1.38;;;0.68;;
75423;SDS011;64005;55.160;36.002;2023-06-04T07:22:16;2.03;;;0.82;;
75423;SDS011;64005;55.160;36.002;2023-06-04T07:29:54;2.60;;;0.80;;
75423;SDS011;64005;55.160;36.002;2023-06-04T07:37:34;2.17;;;0.80;;
75423;SDS011;64005;55.160;36.002;2023-06-04T07:40:16;1.30;;;0.60;;
75423;SDS011;64005;55.160;36.002;2023-06-04T07:42:45;2.10;;;0.60;;
75423;SDS011;64005;55.160;36.002;2023-06-04T07:47:48;1.95;;;0.88;;
75423;SDS011;64005;55.160;36.002;2023-06-04T07:50:16;1.95;;;0.77;;
75423;SDS011;64005;55.160;36.002;2023-06-04T07:52:45;2.38;;;0.77;;
75423;SDS011;64005;55.160;36.002;2023-06-04T07:55:31;1.92;;;0.70;;
75423;SDS011;64005;55.160;36.002;2023-06-04T07:57:59;2.60;;;0.77;;
75423;SDS011;64005;55.160;36.002;2023-06-04T08:00:27;6.25;;;0.90;;
75423;SDS011;64005;55.160;36.002;2023-06-04T08:21:03;3.83;;;0.70;;
75423;SDS011;64005;55.160;36.002;2023-06-04T10:03:40;1.73;;;0.65;;
75423;SDS011;64005;55.160;36.002;2023-06-04T10:40:13;2.38;;;0.70;;
75423;SDS011;64005;55.160;36.002;2023-06-04T10:42:41;2.38;;;0.82;;
75423;SDS011;64005;55.160;36.002;2023-06-04T11:05:52;2.15;;;0.70;;
75423;SDS011;64005;55.160;36.002;2023-06-04T11:39:17;1.67;;;0.63;;
75423;SDS011;64005;55.160;36.002;2023-06-04T11:41:45;2.47;;;0.80;;
75423;SDS011;64005;55.160;36.002;2023-06-04T11:51:59;1.88;;;0.68;;
75423;SDS011;64005;55.160;36.002;2023-06-04T11:59:39;1.73;;;0.77;;
75423;SDS011;64005;55.160;36.002;2023-06-04T12:07:44;2.22;;;0.70;;
75423;SDS011;64005;55.160;36.002;2023-06-04T12:18:00;2.70;;;0.70;;
75423;SDS011;64005;55.160;36.002;2023-06-04T12:20:34;1.88;;;0.70;;
75423;SDS011;64005;55.160;36.002;2023-06-04T12:23:02;1.77;;;0.70;;
75423;SDS011;64005;55.160;36.002;2023-06-04T12:25:31;3.20;;;0.80;;
75423;SDS011;64005;55.160;36.002;2023-06-04T12:27:59;1.13;;;0.40;;
75423;SDS011;64005;55.160;36.002;2023-06-04T12:38:17;2.90;;;0.70;;
75423;SDS011;64005;55.160;36.002;2023-06-04T12:40:44;5.00;;;1.00;;
75423;SDS011;64005;55.160;36.002;2023-06-04T13:27:44;2.17;;;0.77;;
75423;SDS011;64005;55.160;36.002;2023-06-04T13:59:13;1.92;;;0.70;;
75423;SDS011;64005;55.160;36.002;2023-06-04T14:12:21;2.92;;;0.70;;
75423;SDS011;64005;55.160;36.002;2023-06-04T14:21:26;4.93;;;0.95;;
75423;SDS011;64005;55.160;36.002;2023-06-04T14:27:05;1.92;;;0.80;;
75423;SDS011;64005;55.160;36.002;2023-06-04T14:33:16;6.00;;;1.20;;
75423;SDS011;64005;55.160;36.002;2023-06-04T14:39:13;2.72;;;0.77;;
75423;SDS011;64005;55.160;36.002;2023-06-04T14:41:42;2.17;;;0.85;;
75423;SDS011;64005;55.160;36.002;2023-06-04T14:52:24;2.20;;;0.80;;
75423;SDS011;64005;55.160;36.002;2023-06-04T14:54:53;2.28;;;0.80;;
75423;SDS011;64005;55.160;36.002;2023-06-04T14:57:20;2.25;;;0.80;;
75423;SDS011;64005;55.160;36.002;2023-06-04T15:02:42;2.80;;;0.90;;
75423;SDS011;64005;55.160;36.002;2023-06-04T15:14:03;1.70;;;0.70;;
75423;SDS011;64005;55.160;36.002;2023-06-04T15:16:31;3.92;;;1.13;;
75423;SDS011;64005;55.160;36.002;2023-06-04T15:22:06;1.80;;;0.73;;
75423;SDS011;64005;55.160;36.002;2023-06-04T15:27:09;2.72;;;1.02;;
75423;SDS011;64005;55.160;36.002;2023-06-04T15:43:52;2.88;;;0.80;;
75423;SDS011;64005;55.160;36.002;2023-06-04T15:46:37;2.80;;;0.90;;
75423;SDS011;64005;55.160;36.002;2023-06-04T15:49:13;3.63;;;0.77;;
75423;SDS011;64005;55.160;36.002;2023-06-04T16:24:32;3.33;;;1.05;;
75423;SDS011;64005;55.160;36.002;2023-06-04T16:47:43;4.53;;;1.15;;
75423;SDS011;64005;55.160;36.002;2023-06-04T16:53:03;9.50;;;4.47;;
75423;SDS011;64005;55.160;36.002;2023-06-04T16:55:31;7.57;;;4.07;;
75423;SDS011;64005;55.160;36.002;2023-06-04T16:58:00;8.50;;;4.95;;
75423;SDS011;64005;55.160;36.002;2023-06-04T17:00:27;5.50;;;2.60;;
75423;SDS011;64005;55.160;36.002;2023-06-04T17:02:57;5.95;;;2.63;;
75423;SDS011;64005;55.160;36.002;2023-06-04T17:18:22;9.25;;;2.65;;
75423;SDS011;64005;55.160;36.002;2023-06-04T18:09:26;6.38;;;2.40;;
75423;SDS011;64005;55.160;36.002;2023-06-04T18:11:55;5.30;;;2.70;;
75423;SDS011;64005;55.160;36.002;2023-06-04T18:14:23;6.70;;;2.75;;
75423;SDS011;64005;55.160;36.002;2023-06-04T18:16:50;10.43;;;3.95;;
75423;SDS011;64005;55.160;36.002;2023-06-04T18:19:18;7.70;;;3.10;;
75423;SDS011;64005;55.160;36.002;2023-06-04T18:21:45;5.40;;;2.00;;
75423;SDS011;64005;55.160;36.002;2023-06-04T18:24:13;4.18;;;1.52;;
75423;SDS011;64005;55.160;36.002;2023-06-04T18:26:42;4.93;;;1.50;;
75423;SDS011;64005;55.160;36.002;2023-06-04T18:29:09;7.75;;;1.48;;
75423;SDS011;64005;55.160;36.002;2023-06-04T18:31:37;4.75;;;1.48;;
75423;SDS011;64005;55.160;36.002;2023-06-04T18:34:04;5.32;;;2.35;;
75423;SDS011;64005;55.160;36.002;2023-06-04T18:36:34;6.72;;;2.55;;
75423;SDS011;64005;55.160;36.002;2023-06-04T18:39:02;10.73;;;3.78;;
75423;SDS011;64005;55.160;36.002;2023-06-04T18:41:29;8.23;;;3.05;;
75423;SDS011;64005;55.160;36.002;2023-06-04T18:43:58;6.95;;;2.45;;
75423;SDS011;64005;55.160;36.002;2023-06-04T18:46:26;7.82;;;2.25;;
75423;SDS011;64005;55.160;36.002;2023-06-04T18:48:53;5.32;;;1.77;;
75423;SDS011;64005;55.160;36.002;2023-06-04T18:51:21;7.57;;;2.67;;
75423;SDS011;64005;55.160;36.002;2023-06-04T18:53:48;4.57;;;1.70;;
75423;SDS011;64005;55.160;36.002;2023-06-04T18:56:16;6.10;;;2.17;;
75423;SDS011;64005;55.160;36.002;2023-06-04T18:58:43;6.43;;;1.92;;
75423;SDS011;64005;55.160;36.002;2023-06-04T19:01:14;7.78;;;2.47;;
75423;SDS011;64005;55.160;36.002;2023-06-04T19:03:41;4.82;;;1.52;;
75423;SDS011;64005;55.160;36.002;2023-06-04T19:06:09;3.80;;;1.50;;
75423;SDS011;64005;55.160;36.002;2023-06-04T19:08:36;3.78;;;1.58;;
75423;SDS011;64005;55.160;36.002;2023-06-04T19:11:04;5.72;;;1.35;;
75423;SDS011;64005;55.160;36.002;2023-06-04T19:13:31;4.53;;;1.42;;
75423;SDS011;64005;55.160;36.002;2023-06-04T19:15:59;4.22;;;1.35;;
75423;SDS011;64005;55.160;36.002;2023-06-04T19:18:28;4.20;;;1.23;;
75423;SDS011;64005;55.160;36.002;2023-06-04T19:20:56;5.95;;;1.40;;
75423;SDS011;64005;55.160;36.002;2023-06-04T19:23:23;4.75;;;1.60;;
75423;SDS011;64005;55.160;36.002;2023-06-04T19:25:51;3.20;;;1.33;;
75423;SDS011;64005;55.160;36.002;2023-06-04T19:28:18;4.70;;;1.42;;
75423;SDS011;64005;55.160;36.002;2023-06-04T19:30:46;3.38;;;1.20;;
75423;SDS011;64005;55.160;36.002;2023-06-04T19:33:13;3.70;;;1.40;;
75423;SDS011;64005;55.160;36.002;2023-06-04T19:35:42;5.05;;;1.80;;
75423;SDS011;64005;55.160;36.002;2023-06-04T19:38:10;3.95;;;1.40;;
75423;SDS011;64005;55.160;36.002;2023-06-04T19:40:37;4.03;;;1.35;;
75423;SDS011;64005;55.160;36.002;2023-06-04T19:43:05;3.60;;;1.25;;
75423;SDS011;64005;55.160;36.002;2023-06-04T19:45:32;5.25;;;1.40;;
75423;SDS011;64005;55.160;36.002;2023-06-04T19:48:00;4.45;;;1.50;;
75423;SDS011;64005;55.160;36.002;2023-06-04T19:50:27;3.95;;;1.40;;
75423;SDS011;64005;55.160;36.002;2023-06-04T19:52:56;3.42;;;1.17;;
75423;SDS011;64005;55.160;36.002;2023-06-04T19:55:23;3.85;;;1.30;;
75423;SDS011;64005;55.160;36.002;2023-06-04T19:57:51;2.80;;;1.05;;
75423;SDS011;64005;55.160;36.002;2023-06-04T20:00:21;3.42;;;1.42;;
75423;SDS011;64005;55.160;36.002;2023-06-04T20:02:49;2.95;;;1.10;;
75423;SDS011;64005;55.160;36.002;2023-06-04T20:05:19;3.20;;;1.20;;
75423;SDS011;64005;55.160;36.002;2023-06-04T20:07:46;5.35;;;1.23;;
75423;SDS011;64005;55.160;36.002;2023-06-04T20:10:15;3.92;;;1.10;;
75423;SDS011;64005;55.160;36.002;2023-06-04T20:12:45;3.63;;;1.20;;
75423;SDS011;64005;55.160;36.002;2023-06-04T20:15:13;4.45;;;1.45;;
75423;SDS011;64005;55.160;36.002;2023-06-04T20:17:42;6.93;;;1.35;;
75423;SDS011;64005;55.160;36.002;2023-06-04T20:20:10;4.75;;;1.60;;
75423;SDS011;64005;55.160;36.002;2023-06-04T20:22:37;3.75;;;1.38;;
75423;SDS011;64005;55.160;36.002;2023-06-04T20:25:05;3.03;;;1.13;;
75423;SDS011;64005;55.160;36.002;2023-06-04T20:27:35;4.05;;;1.20;;
75423;SDS011;64005;55.160;36.002;2023-06-04T20:30:02;3.28;;;1.45;;
75423;SDS011;64005;55.160;36.002;2023-06-04T20:32:31;3.67;;;1.33;;
75423;SDS011;64005;55.160;36.002;2023-06-04T20:34:59;3.55;;;1.50;;
75423;SDS011;64005;55.160;36.002;2023-06-04T20:37:29;5.07;;;1.30;;
75423;SDS011;64005;55.160;36.002;2023-06-04T20:39:58;3.17;;;1.10;;
75423;SDS011;64005;55.160;36.002;2023-06-04T20:42:26;6.25;;;1.45;;
75423;SDS011;64005;55.160;36.002;2023-06-04T20:44:55;4.15;;;1.30;;
75423;SDS011;64005;55.160;36.002;2023-06-04T20:47:22;6.60;;;1.70;;
75423;SDS011;64005;55.160;36.002;2023-06-04T20:49:50;3.63;;;1.10;;
75423;SDS011;64005;55.160;36.002;2023-06-04T20:52:18;3.72;;;1.38;;
75423;SDS011;64005;55.160;36.002;2023-06-04T20:54:45;3.70;;;1.17;;
75423;SDS011;64005;55.160;36.002;2023-06-04T20:57:12;5.13;;;1.33;;
75423;SDS011;64005;55.160;36.002;2023-06-04T20:59:40;3.90;;;1.40;;
75423;SDS011;64005;55.160;36.002;2023-06-04T21:02:09;3.67;;;1.55;;
75423;SDS011;64005;55.160;36.002;2023-06-04T21:04:36;5.03;;;1.25;;
75423;SDS011;64005;55.160;36.002;2023-06-04T21:07:04;3.00;;;1.30;;
75423;SDS011;64005;55.160;36.002;2023-06-04T21:09:32;4.03;;;1.35;;
75423;SDS011;64005;55.160;36.002;2023-06-04T21:12:00;3.47;;;1.40;;
75423;SDS011;64005;55.160;36.002;2023-06-04T21:14:27;4.53;;;1.27;;
75423;SDS011;64005;55.160;36.002;2023-06-04T21:16:55;6.55;;;3.55;;
75423;SDS011;64005;55.160;36.002;2023-06-04T21:19:24;5.13;;;2.63;;
75423;SDS011;64005;55.160;36.002;2023-06-04T21:21:51;4.68;;;2.10;;
75423;SDS011;64005;55.160;36.002;2023-06-04T21:24:19;4.80;;;1.50;;
75423;SDS011;64005;55.160;36.002;2023-06-04T21:26:46;4.65;;;1.88;;
75423;SDS011;64005;55.160;36.002;2023-06-04T21:29:13;4.28;;;1.67;;
75423;SDS011;64005;55.160;36.002;2023-06-04T21:31:41;3.55;;;1.17;;
75423;SDS011;64005;55.160;36.002;2023-06-04T21:34:09;3.60;;;1.10;;
75423;SDS011;64005;55.160;36.002;2023-06-04T21:36:38;4.47;;;1.20;;
75423;SDS011;64005;55.160;36.002;2023-06-04T21:39:06;3.25;;;1.23;;
75423;SDS011;64005;55.160;36.002;2023-06-04T21:41:33;2.58;;;1.10;;
75423;SDS011;64005;55.160;36.002;2023-06-04T21:44:01;3.25;;;1.00;;
75423;SDS011;64005;55.160;36.002;2023-06-04T21:46:28;2.90;;;1.00;;
75423;SDS011;64005;55.160;36.002;2023-06-04T21:48:56;3.05;;;1.05;;
75423;SDS011;64005;55.160;36.002;2023-06-04T21:51:23;4.82;;;1.48;;
75423;SDS011;64005;55.160;36.002;2023-06-04T21:53:52;2.80;;;0.98;;
75423;SDS011;64005;55.160;36.002;2023-06-04T21:56:19;4.20;;;1.20;;
75423;SDS011;64005;55.160;36.002;2023-06-04T21:58:47;5.95;;;1.10;;
75423;SDS011;64005;55.160;36.002;2023-06-04T22:01:14;2.72;;;0.98;;
75423;SDS011;64005;55.160;36.002;2023-06-04T22:03:42;6.88;;;1.30;;
75423;SDS011;64005;55.160;36.002;2023-06-04T22:06:09;3.10;;;1.10;;
75423;SDS011;64005;55.160;36.002;2023-06-04T22:08:37;4.28;;;1.15;;
75423;SDS011;64005;55.160;36.002;2023-06-04T22:11:06;3.00;;;1.30;;
75423;SDS011;64005;55.160;36.002;2023-06-04T22:13:33;3.08;;;1.00;;
75423;SDS011;64005;55.160;36.002;2023-06-04T22:16:02;2.72;;;1.10;;
75423;SDS011;64005;55.160;36.002;2023-06-04T22:18:30;3.47;;;1.30;;
75423;SDS011;64005;55.160;36.002;2023-06-04T22:20:57;3.15;;;1.20;;
75423;SDS011;64005;55.160;36.002;2023-06-04T22:23:25;5.07;;;1.00;;
75423;SDS011;64005;55.160;36.002;2023-06-04T22:25:52;6.00;;;1.40;;
75423;SDS011;64005;55.160;36.002;2023-06-04T22:28:21;2.80;;;1.10;;
75423;SDS011;64005;55.160;36.002;2023-06-04T22:30:49;3.63;;;1.23;;
75423;SDS011;64005;55.160;36.002;2023-06-04T22:33:16;2.75;;;1.10;;
75423;SDS011;64005;55.160;36.002;2023-06-04T22:35:44;2.58;;;1.08;;
75423;SDS011;64005;55.160;36.002;2023-06-04T22:38:11;2.72;;;0.90;;
75423;SDS011;64005;55.160;36.002;2023-06-04T22:40:39;4.72;;;1.30;;
75423;SDS011;64005;55.160;36.002;2023-06-04T22:43:06;5.63;;;0.98;;
75423;SDS011;64005;55.160;36.002;2023-06-04T22:45:35;3.72;;;1.13;;
75423;SDS011;64005;55.160;36.002;2023-06-04T22:48:04;3.05;;;1.45;;
75423;SDS011;64005;55.160;36.002;2023-06-04T22:50:32;4.95;;;1.30;;
75423;SDS011;64005;55.160;36.002;2023-06-04T22:53:02;3.10;;;1.30;;
75423;SDS011;64005;55.160;36.002;2023-06-04T22:55:34;4.18;;;1.10;;
75423;SDS011;64005;55.160;36.002;2023-06-04T22:58:01;3.95;;;1.17;;
75423;SDS011;64005;55.160;36.002;2023-06-04T23:00:29;3.60;;;1.30;;
75423;SDS011;64005;55.160;36.002;2023-06-04T23:02:59;2.95;;;1.10;;
75423;SDS011;64005;55.160;36.002;2023-06-04T23:05:26;3.03;;;1.15;;
75423;SDS011;64005;55.160;36.002;2023-06-04T23:07:55;4.25;;;1.30;;
75423;SDS011;64005;55.160;36.002;2023-06-04T23:10:23;2.90;;;1.00;;
75423;SDS011;64005;55.160;36.002;2023-06-04T23:12:51;3.40;;;1.20;;
75423;SDS011;64005;55.160;36.002;2023-06-04T23:15:20;3.17;;;1.10;;
75423;SDS011;64005;55.160;36.002;2023-06-04T23:17:50;6.15;;;1.50;;
75423;SDS011;64005;55.160;36.002;2023-06-04T23:20:19;2.50;;;1.05;;
75423;SDS011;64005;55.160;36.002;2023-06-04T23:22:46;3.17;;;1.27;;
75423;SDS011;64005;55.160;36.002;2023-06-04T23:25:14;5.38;;;1.42;;
75423;SDS011;64005;55.160;36.002;2023-06-04T23:27:43;6.07;;;1.20;;
75423;SDS011;64005;55.160;36.002;2023-06-04T23:30:11;2.33;;;1.05;;
75423;SDS011;64005;55.160;36.002;2023-06-04T23:32:39;3.45;;;1.10;;
75423;SDS011;64005;55.160;36.002;2023-06-04T23:35:07;3.42;;;1.30;;
75423;SDS011;64005;55.160;36.002;2023-06-04T23:37:37;4.20;;;0.98;;
75423;SDS011;64005;55.160;36.002;2023-06-04T23:40:05;5.45;;;1.20;;
75423;SDS011;64005;55.160;36.002;2023-06-04T23:45:12;2.85;;;0.98;;
75423;SDS011;64005;55.160;36.002;2023-06-04T23:47:40;3.85;;;1.27;;
75423;SDS011;64005;55.160;36.002;2023-06-04T23:50:07;3.85;;;1.02;;
75423;SDS011;64005;55.160;36.002;2023-06-04T23:52:37;5.18;;;1.30;;
75423;SDS011;64005;55.160;36.002;2023-06-04T23:55:05;3.13;;;1.10;;
75423;SDS011;64005;55.160;36.002;2023-06-04T23:57:33;3.03;;;1.10;;
